sensor_id;sensor_type;location;lat;lon;timestamp;P1;durP1;ratioP1;P2;durP2;ratioP2
76259;SDS011;65076;52.362;6.588;2023-04-01T00:01:07;0.00;;;0.00;;
76259;SDS011;65076;52.362;6.588;2023-04-01T00:03:35;0.00;;;0.00;;
76259;SDS011;65076;52.362;6.588;2023-04-01T00:06:03;0.00;;;0.00;;
76259;SDS011;65076;52.362;6.588;2023-04-01T00:08:31;0.00;;;0.00;;
76259;SDS011;65076;52.362;6.588;2023-04-01T00:10:59;0.00;;;0.00;;
76259;SDS011;65076;52.362;6.588;2023-04-01T00:13:27;0.00;;;0.00;;
76259;SDS011;65076;52.362;6.588;2023-04-01T00:15:55;0.00;;;0.00;;
76259;SDS011;65076;52.362;6.588;2023-04-01T00:18:27;0.00;;;0.00;;
76259;SDS011;65076;52.362;6.588;2023-04-01T00:20:54;0.00;;;0.00;;
76259;SDS011;65076;52.362;6.588;2023-04-01T00:23:22;0.00;;;0.00;;
76259;SDS011;65076;52.362;6.588;2023-04-01T00:25:50;0.00;;;0.00;;
76259;SDS011;65076;52.362;6.588;2023-04-01T00:28:19;0.00;;;0.00;;
76259;SDS011;65076;52.362;6.588;2023-04-01T00:30:47;0.00;;;0.00;;
76259;SDS011;65076;52.362;6.588;2023-04-01T00:33:15;0.00;;;0.00;;
76259;SDS011;65076;52.362;6.588;2023-04-01T00:35:45;0.00;;;0.00;;
76259;SDS011;65076;52.362;6.588;2023-04-01T00:38:13;0.00;;;0.00;;
76259;SDS011;65076;52.362;6.588;2023-04-01T00:40:43;0.00;;;0.00;;
76259;SDS011;65076;52.362;6.588;2023-04-01T00:43:14;0.00;;;0.00;;
76259;SDS011;65076;52.362;6.588;2023-04-01T00:45:46;0.43;;;0.43;;
76259;SDS011;65076;52.362;6.588;2023-04-01T00:48:17;0.00;;;0.00;;
76259;SDS011;65076;52.362;6.588;2023-04-01T00:50:54;0.00;;;0.00;;
76259;SDS011;65076;52.362;6.588;2023-04-01T00:55:59;0.00;;;0.00;;
76259;SDS011;65076;52.362;6.588;2023-04-01T00:58:32;0.00;;;0.00;;
76259;SDS011;65076;52.362;6.588;2023-04-01T01:01:07;0.22;;;0.22;;
76259;SDS011;65076;52.362;6.588;2023-04-01T01:03:36;0.00;;;0.00;;
76259;SDS011;65076;52.362;6.588;2023-04-01T01:06:10;0.10;;;0.10;;
76259;SDS011;65076;52.362;6.588;2023-04-01T01:09:03;0.00;;;0.00;;
76259;SDS011;65076;52.362;6.588;2023-04-01T01:11:44;3.13;;;3.03;;
76259;SDS011;65076;52.362;6.588;2023-04-01T01:14:25;0.00;;;0.00;;
76259;SDS011;65076;52.362;6.588;2023-04-01T01:17:12;0.00;;;0.00;;
76259;SDS011;65076;52.362;6.588;2023-04-01T01:19:58;0.00;;;0.00;;
76259;SDS011;65076;52.362;6.588;2023-04-01T01:22:57;0.00;;;0.00;;
76259;SDS011;65076;52.362;6.588;2023-04-01T01:25:52;0.00;;;0.00;;
76259;SDS011;65076;52.362;6.588;2023-04-01T01:28:44;0.00;;;0.00;;
76259;SDS011;65076;52.362;6.588;2023-04-01T01:31:29;0.00;;;0.00;;
76259;SDS011;65076;52.362;6.588;2023-04-01T01:34:09;0.00;;;0.00;;
76259;SDS011;65076;52.362;6.588;2023-04-01T01:36:50;0.00;;;0.00;;
76259;SDS011;65076;52.362;6.588;2023-04-01T01:39:25;0.00;;;0.00;;
76259;SDS011;65076;52.362;6.588;2023-04-01T01:41:59;0.00;;;0.00;;
76259;SDS011;65076;52.362;6.588;2023-04-01T01:44:32;0.00;;;0.00;;
76259;SDS011;65076;52.362;6.588;2023-04-01T01:47:03;0.00;;;0.00;;
76259;SDS011;65076;52.362;6.588;2023-04-01T01:49:31;0.00;;;0.00;;
76259;SDS011;65076;52.362;6.588;2023-04-01T01:52:05;0.00;;;0.00;;
76259;SDS011;65076;52.362;6.588;2023-04-01T01:54:33;0.00;;;0.00;;
76259;SDS011;65076;52.362;6.588;2023-04-01T01:57:02;0.00;;;0.00;;
76259;SDS011;65076;52.362;6.588;2023-04-01T01:59:34;0.00;;;0.00;;
76259;SDS011;65076;52.362;6.588;2023-04-01T02:02:07;0.00;;;0.00;;
76259;SDS011;65076;52.362;6.588;2023-04-01T02:04:39;0.00;;;0.00;;
76259;SDS011;65076;52.362;6.588;2023-04-01T02:07:14;0.00;;;0.00;;
76259;SDS011;65076;52.362;6.588;2023-04-01T02:09:50;0.00;;;0.00;;
76259;SDS011;65076;52.362;6.588;2023-04-01T02:12:19;0.00;;;0.00;;
76259;SDS011;65076;52.362;6.588;2023-04-01T02:14:52;0.00;;;0.00;;
76259;SDS011;65076;52.362;6.588;2023-04-01T02:17:25;0.00;;;0.00;;
76259;SDS011;65076;52.362;6.588;2023-04-01T02:19:57;0.00;;;0.00;;
76259;SDS011;65076;52.362;6.588;2023-04-01T02:22:33;0.00;;;0.00;;
76259;SDS011;65076;52.362;6.588;2023-04-01T02:25:09;0.00;;;0.00;;
76259;SDS011;65076;52.362;6.588;2023-04-01T02:27:41;0.00;;;0.00;;
76259;SDS011;65076;52.362;6.588;2023-04-01T02:30:13;0.00;;;0.00;;
76259;SDS011;65076;52.362;6.588;2023-04-01T02:32:43;0.00;;;0.00;;
76259;SDS011;65076;52.362;6.588;2023-04-01T02:35:14;0.00;;;0.00;;
76259;SDS011;65076;52.362;6.588;2023-04-01T02:37:46;0.00;;;0.00;;
76259;SDS011;65076;52.362;6.588;2023-04-01T02:40:19;0.00;;;0.00;;
76259;SDS011;65076;52.362;6.588;2023-04-01T02:42:47;0.00;;;0.00;;
76259;SDS011;65076;52.362;6.588;2023-04-01T02:45:15;0.00;;;0.00;;
76259;SDS011;65076;52.362;6.588;2023-04-01T02:47:43;0.00;;;0.00;;
76259;SDS011;65076;52.362;6.588;2023-04-01T02:50:11;0.00;;;0.00;;
76259;SDS011;65076;52.362;6.588;2023-04-01T02:52:39;0.00;;;0.00;;
76259;SDS011;65076;52.362;6.588;2023-04-01T02:55:08;0.00;;;0.00;;
76259;SDS011;65076;52.362;6.588;2023-04-01T03:00:05;1.00;;;0.95;;
76259;SDS011;65076;52.362;6.588;2023-04-01T03:02:37;0.10;;;0.10;;
76259;SDS011;65076;52.362;6.588;2023-04-01T03:05:06;0.00;;;0.00;;
76259;SDS011;65076;52.362;6.588;2023-04-01T03:07:35;0.00;;;0.00;;
76259;SDS011;65076;52.362;6.588;2023-04-01T03:10:03;0.00;;;0.00;;
76259;SDS011;65076;52.362;6.588;2023-04-01T03:12:33;0.00;;;0.00;;
76259;SDS011;65076;52.362;6.588;2023-04-01T03:15:02;0.00;;;0.00;;
76259;SDS011;65076;52.362;6.588;2023-04-01T03:20:08;0.10;;;0.10;;
76259;SDS011;65076;52.362;6.588;2023-04-01T03:25:08;0.00;;;0.00;;
76259;SDS011;65076;52.362;6.588;2023-04-01T03:27:38;0.00;;;0.00;;
76259;SDS011;65076;52.362;6.588;2023-04-01T03:30:07;0.00;;;0.00;;
76259;SDS011;65076;52.362;6.588;2023-04-01T03:32:36;0.00;;;0.00;;
76259;SDS011;65076;52.362;6.588;2023-04-01T03:35:05;0.00;;;0.00;;
76259;SDS011;65076;52.362;6.588;2023-04-01T03:37:35;0.00;;;0.00;;
76259;SDS011;65076;52.362;6.588;2023-04-01T03:40:04;0.00;;;0.00;;
76259;SDS011;65076;52.362;6.588;2023-04-01T03:42:33;0.00;;;0.00;;
76259;SDS011;65076;52.362;6.588;2023-04-01T03:45:03;0.03;;;0.03;;
76259;SDS011;65076;52.362;6.588;2023-04-01T03:47:33;0.00;;;0.00;;
76259;SDS011;65076;52.362;6.588;2023-04-01T03:50:01;0.00;;;0.00;;
76259;SDS011;65076;52.362;6.588;2023-04-01T03:52:30;0.00;;;0.00;;
76259;SDS011;65076;52.362;6.588;2023-04-01T03:54:58;0.93;;;0.90;;
76259;SDS011;65076;52.362;6.588;2023-04-01T03:57:26;0.00;;;0.00;;
76259;SDS011;65076;52.362;6.588;2023-04-01T03:59:55;0.00;;;0.00;;
76259;SDS011;65076;52.362;6.588;2023-04-01T04:02:25;0.00;;;0.00;;
76259;SDS011;65076;52.362;6.588;2023-04-01T04:04:53;0.10;;;0.10;;
76259;SDS011;65076;52.362;6.588;2023-04-01T04:07:21;0.00;;;0.00;;
76259;SDS011;65076;52.362;6.588;2023-04-01T04:09:48;0.00;;;0.00;;
76259;SDS011;65076;52.362;6.588;2023-04-01T04:12:18;0.00;;;0.00;;
76259;SDS011;65076;52.362;6.588;2023-04-01T04:14:46;0.00;;;0.00;;
76259;SDS011;65076;52.362;6.588;2023-04-01T04:17:13;0.00;;;0.00;;
76259;SDS011;65076;52.362;6.588;2023-04-01T04:19:43;0.00;;;0.00;;
76259;SDS011;65076;52.362;6.588;2023-04-01T04:22:11;0.00;;;0.00;;
76259;SDS011;65076;52.362;6.588;2023-04-01T04:24:39;0.20;;;0.20;;
76259;SDS011;65076;52.362;6.588;2023-04-01T04:27:09;0.00;;;0.00;;
76259;SDS011;65076;52.362;6.588;2023-04-01T04:29:37;1.10;;;1.10;;
76259;SDS011;65076;52.362;6.588;2023-04-01T04:32:04;0.00;;;0.00;;
76259;SDS011;65076;52.362;6.588;2023-04-01T04:34:32;0.00;;;0.00;;
76259;SDS011;65076;52.362;6.588;2023-04-01T04:37:02;0.00;;;0.00;;
76259;SDS011;65076;52.362;6.588;2023-04-01T04:39:30;0.00;;;0.00;;
76259;SDS011;65076;52.362;6.588;2023-04-01T04:41:57;0.00;;;0.00;;
76259;SDS011;65076;52.362;6.588;2023-04-01T04:44:25;0.00;;;0.00;;
76259;SDS011;65076;52.362;6.588;2023-04-01T04:46:53;0.00;;;0.00;;
76259;SDS011;65076;52.362;6.588;2023-04-01T04:49:23;0.00;;;0.00;;
76259;SDS011;65076;52.362;6.588;2023-04-01T04:51:52;0.00;;;0.00;;
76259;SDS011;65076;52.362;6.588;2023-04-01T04:54:21;0.00;;;0.00;;
76259;SDS011;65076;52.362;6.588;2023-04-01T04:56:50;0.00;;;0.00;;
76259;SDS011;65076;52.362;6.588;2023-04-01T04:59:19;0.00;;;0.00;;
76259;SDS011;65076;52.362;6.588;2023-04-01T05:01:46;0.00;;;0.00;;
76259;SDS011;65076;52.362;6.588;2023-04-01T05:04:14;0.20;;;0.20;;
76259;SDS011;65076;52.362;6.588;2023-04-01T05:06:42;0.00;;;0.00;;
76259;SDS011;65076;52.362;6.588;2023-04-01T05:09:11;0.00;;;0.00;;
76259;SDS011;65076;52.362;6.588;2023-04-01T05:11:40;0.20;;;0.20;;
76259;SDS011;65076;52.362;6.588;2023-04-01T05:14:11;0.00;;;0.00;;
76259;SDS011;65076;52.362;6.588;2023-04-01T05:16:40;0.00;;;0.00;;
76259;SDS011;65076;52.362;6.588;2023-04-01T05:19:08;0.00;;;0.00;;
76259;SDS011;65076;52.362;6.588;2023-04-01T05:21:36;0.00;;;0.00;;
76259;SDS011;65076;52.362;6.588;2023-04-01T05:24:07;0.00;;;0.00;;
76259;SDS011;65076;52.362;6.588;2023-04-01T05:26:36;0.00;;;0.00;;
76259;SDS011;65076;52.362;6.588;2023-04-01T05:29:05;0.00;;;0.00;;
76259;SDS011;65076;52.362;6.588;2023-04-01T05:31:33;0.00;;;0.00;;
76259;SDS011;65076;52.362;6.588;2023-04-01T05:34:01;0.00;;;0.00;;
76259;SDS011;65076;52.362;6.588;2023-04-01T05:36:29;0.38;;;0.38;;
76259;SDS011;65076;52.362;6.588;2023-04-01T05:38:57;0.00;;;0.00;;
76259;SDS011;65076;52.362;6.588;2023-04-01T05:41:25;0.00;;;0.00;;
76259;SDS011;65076;52.362;6.588;2023-04-01T05:43:53;0.00;;;0.00;;
76259;SDS011;65076;52.362;6.588;2023-04-01T05:46:23;0.00;;;0.00;;
76259;SDS011;65076;52.362;6.588;2023-04-01T05:48:51;0.10;;;0.10;;
76259;SDS011;65076;52.362;6.588;2023-04-01T05:51:18;0.00;;;0.00;;
76259;SDS011;65076;52.362;6.588;2023-04-01T05:53:46;0.00;;;0.00;;
76259;SDS011;65076;52.362;6.588;2023-04-01T05:56:14;0.00;;;0.00;;
76259;SDS011;65076;52.362;6.588;2023-04-01T05:58:42;0.00;;;0.00;;
76259;SDS011;65076;52.362;6.588;2023-04-01T06:01:13;0.00;;;0.00;;
76259;SDS011;65076;52.362;6.588;2023-04-01T06:03:43;0.00;;;0.00;;
76259;SDS011;65076;52.362;6.588;2023-04-01T06:06:13;0.08;;;0.08;;
76259;SDS011;65076;52.362;6.588;2023-04-01T06:08:46;0.00;;;0.00;;
76259;SDS011;65076;52.362;6.588;2023-04-01T06:11:18;0.00;;;0.00;;
76259;SDS011;65076;52.362;6.588;2023-04-01T06:14:08;0.00;;;0.00;;
76259;SDS011;65076;52.362;6.588;2023-04-01T06:16:54;0.00;;;0.00;;
76259;SDS011;65076;52.362;6.588;2023-04-01T06:19:50;0.00;;;0.00;;
76259;SDS011;65076;52.362;6.588;2023-04-01T06:25:53;0.00;;;0.00;;
76259;SDS011;65076;52.362;6.588;2023-04-01T06:28:41;0.00;;;0.00;;
76259;SDS011;65076;52.362;6.588;2023-04-01T06:31:54;0.00;;;0.00;;
76259;SDS011;65076;52.362;6.588;2023-04-01T06:34:45;0.00;;;0.00;;
76259;SDS011;65076;52.362;6.588;2023-04-01T06:37:41;0.10;;;0.10;;
76259;SDS011;65076;52.362;6.588;2023-04-01T06:40:41;0.00;;;0.00;;
76259;SDS011;65076;52.362;6.588;2023-04-01T06:43:27;0.00;;;0.00;;
76259;SDS011;65076;52.362;6.588;2023-04-01T06:46:15;0.00;;;0.00;;
76259;SDS011;65076;52.362;6.588;2023-04-01T06:49:03;0.00;;;0.00;;
76259;SDS011;65076;52.362;6.588;2023-04-01T06:51:54;0.00;;;0.00;;
76259;SDS011;65076;52.362;6.588;2023-04-01T06:54:36;0.00;;;0.00;;
76259;SDS011;65076;52.362;6.588;2023-04-01T06:57:13;0.00;;;0.00;;
76259;SDS011;65076;52.362;6.588;2023-04-01T06:59:52;0.00;;;0.00;;
76259;SDS011;65076;52.362;6.588;2023-04-01T07:02:25;0.00;;;0.00;;
76259;SDS011;65076;52.362;6.588;2023-04-01T07:05:05;0.43;;;0.43;;
76259;SDS011;65076;52.362;6.588;2023-04-01T07:07:39;0.00;;;0.00;;
76259;SDS011;65076;52.362;6.588;2023-04-01T07:10:17;0.00;;;0.00;;
76259;SDS011;65076;52.362;6.588;2023-04-01T07:12:58;0.00;;;0.00;;
76259;SDS011;65076;52.362;6.588;2023-04-01T07:15:33;0.00;;;0.00;;
76259;SDS011;65076;52.362;6.588;2023-04-01T07:18:09;0.00;;;0.00;;
76259;SDS011;65076;52.362;6.588;2023-04-01T07:20:44;0.10;;;0.10;;
76259;SDS011;65076;52.362;6.588;2023-04-01T07:23:16;0.00;;;0.00;;
76259;SDS011;65076;52.362;6.588;2023-04-01T07:25:52;0.00;;;0.00;;
76259;SDS011;65076;52.362;6.588;2023-04-01T07:28:29;0.00;;;0.00;;
76259;SDS011;65076;52.362;6.588;2023-04-01T07:31:04;0.00;;;0.00;;
76259;SDS011;65076;52.362;6.588;2023-04-01T07:33:49;0.00;;;0.00;;
76259;SDS011;65076;52.362;6.588;2023-04-01T07:36:32;0.00;;;0.00;;
76259;SDS011;65076;52.362;6.588;2023-04-01T07:39:11;0.00;;;0.00;;
76259;SDS011;65076;52.362;6.588;2023-04-01T07:41:57;0.00;;;0.00;;
76259;SDS011;65076;52.362;6.588;2023-04-01T07:44:38;0.00;;;0.00;;
76259;SDS011;65076;52.362;6.588;2023-04-01T07:47:23;0.00;;;0.00;;
76259;SDS011;65076;52.362;6.588;2023-04-01T07:50:11;0.00;;;0.00;;
76259;SDS011;65076;52.362;6.588;2023-04-01T07:52:51;0.00;;;0.00;;
76259;SDS011;65076;52.362;6.588;2023-04-01T07:55:41;0.00;;;0.00;;
76259;SDS011;65076;52.362;6.588;2023-04-01T07:58:19;0.00;;;0.00;;
76259;SDS011;65076;52.362;6.588;2023-04-01T08:00:56;0.00;;;0.00;;
76259;SDS011;65076;52.362;6.588;2023-04-01T08:03:36;0.00;;;0.00;;
76259;SDS011;65076;52.362;6.588;2023-04-01T08:06:24;0.00;;;0.00;;
76259;SDS011;65076;52.362;6.588;2023-04-01T08:09:02;0.00;;;0.00;;
76259;SDS011;65076;52.362;6.588;2023-04-01T08:11:50;0.00;;;0.00;;
76259;SDS011;65076;52.362;6.588;2023-04-01T08:14:36;0.00;;;0.00;;
76259;SDS011;65076;52.362;6.588;2023-04-01T08:17:20;0.00;;;0.00;;
76259;SDS011;65076;52.362;6.588;2023-04-01T08:20:02;0.00;;;0.00;;
76259;SDS011;65076;52.362;6.588;2023-04-01T08:22:51;0.00;;;0.00;;
76259;SDS011;65076;52.362;6.588;2023-04-01T08:25:28;0.00;;;0.00;;
76259;SDS011;65076;52.362;6.588;2023-04-01T08:28:05;0.00;;;0.00;;
76259;SDS011;65076;52.362;6.588;2023-04-01T08:30:46;0.00;;;0.00;;
76259;SDS011;65076;52.362;6.588;2023-04-01T08:33:31;0.52;;;0.52;;
76259;SDS011;65076;52.362;6.588;2023-04-01T08:36:02;0.00;;;0.00;;
76259;SDS011;65076;52.362;6.588;2023-04-01T08:38:39;0.00;;;0.00;;
76259;SDS011;65076;52.362;6.588;2023-04-01T08:41:21;0.00;;;0.00;;
76259;SDS011;65076;52.362;6.588;2023-04-01T08:44:35;0.00;;;0.00;;
76259;SDS011;65076;52.362;6.588;2023-04-01T08:47:54;0.00;;;0.00;;
76259;SDS011;65076;52.362;6.588;2023-04-01T08:51:02;0.00;;;0.00;;
76259;SDS011;65076;52.362;6.588;2023-04-01T08:53:57;0.00;;;0.00;;
76259;SDS011;65076;52.362;6.588;2023-04-01T08:57:04;0.10;;;0.10;;
76259;SDS011;65076;52.362;6.588;2023-04-01T08:59:52;0.00;;;0.00;;
76259;SDS011;65076;52.362;6.588;2023-04-01T09:02:50;0.00;;;0.00;;
76259;SDS011;65076;52.362;6.588;2023-04-01T09:05:39;0.10;;;0.10;;
76259;SDS011;65076;52.362;6.588;2023-04-01T09:08:42;0.20;;;0.20;;
76259;SDS011;65076;52.362;6.588;2023-04-01T09:11:32;0.00;;;0.00;;
76259;SDS011;65076;52.362;6.588;2023-04-01T09:14:23;0.00;;;0.00;;
76259;SDS011;65076;52.362;6.588;2023-04-01T09:17:42;0.00;;;0.00;;
76259;SDS011;65076;52.362;6.588;2023-04-01T09:23:57;0.63;;;0.63;;
76259;SDS011;65076;52.362;6.588;2023-04-01T09:26:58;0.00;;;0.00;;
76259;SDS011;65076;52.362;6.588;2023-04-01T09:29:42;0.00;;;0.00;;
76259;SDS011;65076;52.362;6.588;2023-04-01T09:32:52;0.00;;;0.00;;
76259;SDS011;65076;52.362;6.588;2023-04-01T09:36:07;0.00;;;0.00;;
76259;SDS011;65076;52.362;6.588;2023-04-01T09:38:55;0.00;;;0.00;;
76259;SDS011;65076;52.362;6.588;2023-04-01T09:41:29;0.00;;;0.00;;
76259;SDS011;65076;52.362;6.588;2023-04-01T09:44:03;0.00;;;0.00;;
76259;SDS011;65076;52.362;6.588;2023-04-01T09:46:50;0.00;;;0.00;;
76259;SDS011;65076;52.362;6.588;2023-04-01T09:52:55;0.00;;;0.00;;
76259;SDS011;65076;52.362;6.588;2023-04-01T09:55:49;0.00;;;0.00;;
76259;SDS011;65076;52.362;6.588;2023-04-01T09:59:12;0.00;;;0.00;;
76259;SDS011;65076;52.362;6.588;2023-04-01T10:08:47;0.00;;;0.00;;
76259;SDS011;65076;52.362;6.588;2023-04-01T10:12:10;0.30;;;0.20;;
76259;SDS011;65076;52.362;6.588;2023-04-01T10:18:42;0.00;;;0.00;;
76259;SDS011;65076;52.362;6.588;2023-04-01T10:21:49;0.00;;;0.00;;
76259;SDS011;65076;52.362;6.588;2023-04-01T10:25:01;0.00;;;0.00;;
76259;SDS011;65076;52.362;6.588;2023-04-01T10:28:18;0.00;;;0.00;;
76259;SDS011;65076;52.362;6.588;2023-04-01T10:31:15;0.00;;;0.00;;
76259;SDS011;65076;52.362;6.588;2023-04-01T10:34:31;0.00;;;0.00;;
76259;SDS011;65076;52.362;6.588;2023-04-01T10:40:53;2.63;;;1.70;;
76259;SDS011;65076;52.362;6.588;2023-04-01T10:44:02;2.92;;;2.03;;
76259;SDS011;65076;52.362;6.588;2023-04-01T10:50:09;2.42;;;1.40;;
76259;SDS011;65076;52.362;6.588;2023-04-01T10:59:36;2.92;;;1.70;;
76259;SDS011;65076;52.362;6.588;2023-04-01T11:12:40;2.20;;;1.58;;
76259;SDS011;65076;52.362;6.588;2023-04-01T11:19:20;1.75;;;1.35;;
76259;SDS011;65076;52.362;6.588;2023-04-01T11:22:37;1.73;;;1.17;;
76259;SDS011;65076;52.362;6.588;2023-04-01T11:25:36;1.98;;;0.90;;
76259;SDS011;65076;52.362;6.588;2023-04-01T11:31:26;2.80;;;1.35;;
76259;SDS011;65076;52.362;6.588;2023-04-01T11:34:11;2.70;;;1.85;;
76259;SDS011;65076;52.362;6.588;2023-04-01T11:37:06;3.25;;;1.90;;
76259;SDS011;65076;52.362;6.588;2023-04-01T11:40:02;2.42;;;1.63;;
76259;SDS011;65076;52.362;6.588;2023-04-01T11:42:43;3.03;;;1.50;;
76259;SDS011;65076;52.362;6.588;2023-04-01T11:45:25;1.92;;;1.05;;
76259;SDS011;65076;52.362;6.588;2023-04-01T11:48:14;1.98;;;1.00;;
76259;SDS011;65076;52.362;6.588;2023-04-01T11:51:05;2.22;;;1.15;;
76259;SDS011;65076;52.362;6.588;2023-04-01T11:53:59;1.05;;;0.70;;
76259;SDS011;65076;52.362;6.588;2023-04-01T11:56:42;1.13;;;0.90;;
76259;SDS011;65076;52.362;6.588;2023-04-01T11:59:29;1.33;;;0.85;;
76259;SDS011;65076;52.362;6.588;2023-04-01T12:02:29;1.15;;;0.80;;
76259;SDS011;65076;52.362;6.588;2023-04-01T12:05:18;0.90;;;0.60;;
76259;SDS011;65076;52.362;6.588;2023-04-01T12:08:10;2.08;;;1.02;;
76259;SDS011;65076;52.362;6.588;2023-04-01T12:11:05;2.85;;;0.90;;
76259;SDS011;65076;52.362;6.588;2023-04-01T12:13:48;2.92;;;0.82;;
76259;SDS011;65076;52.362;6.588;2023-04-01T12:16:36;1.52;;;1.08;;
76259;SDS011;65076;52.362;6.588;2023-04-01T12:19:17;1.52;;;0.90;;
76259;SDS011;65076;52.362;6.588;2023-04-01T12:22:04;1.48;;;0.90;;
76259;SDS011;65076;52.362;6.588;2023-04-01T12:24:52;1.50;;;0.73;;
76259;SDS011;65076;52.362;6.588;2023-04-01T12:27:45;1.40;;;0.90;;
76259;SDS011;65076;52.362;6.588;2023-04-01T12:33:31;1.95;;;0.90;;
76259;SDS011;65076;52.362;6.588;2023-04-01T12:36:31;1.73;;;1.27;;
76259;SDS011;65076;52.362;6.588;2023-04-01T12:39:22;2.08;;;1.00;;
76259;SDS011;65076;52.362;6.588;2023-04-01T12:42:09;1.55;;;1.00;;
76259;SDS011;65076;52.362;6.588;2023-04-01T12:44:52;1.40;;;0.93;;
76259;SDS011;65076;52.362;6.588;2023-04-01T12:47:55;1.20;;;0.95;;
76259;SDS011;65076;52.362;6.588;2023-04-01T12:51:01;0.98;;;0.75;;
76259;SDS011;65076;52.362;6.588;2023-04-01T12:57:23;1.10;;;0.80;;
76259;SDS011;65076;52.362;6.588;2023-04-01T13:00:24;1.23;;;0.90;;
76259;SDS011;65076;52.362;6.588;2023-04-01T13:03:18;1.70;;;0.80;;
76259;SDS011;65076;52.362;6.588;2023-04-01T13:06:18;1.75;;;1.10;;
76259;SDS011;65076;52.362;6.588;2023-04-01T13:09:02;2.35;;;1.30;;
76259;SDS011;65076;52.362;6.588;2023-04-01T13:11:50;3.22;;;1.30;;
76259;SDS011;65076;52.362;6.588;2023-04-01T13:14:48;1.33;;;1.00;;
76259;SDS011;65076;52.362;6.588;2023-04-01T13:17:37;1.90;;;1.35;;
76259;SDS011;65076;52.362;6.588;2023-04-01T13:20:22;4.22;;;1.30;;
76259;SDS011;65076;52.362;6.588;2023-04-01T13:23:11;1.35;;;0.90;;
76259;SDS011;65076;52.362;6.588;2023-04-01T13:25:59;1.35;;;0.95;;
76259;SDS011;65076;52.362;6.588;2023-04-01T13:28:42;1.52;;;1.00;;
76259;SDS011;65076;52.362;6.588;2023-04-01T13:31:25;1.58;;;1.10;;
76259;SDS011;65076;52.362;6.588;2023-04-01T13:34:17;1.75;;;1.00;;
76259;SDS011;65076;52.362;6.588;2023-04-01T13:37:04;1.88;;;1.15;;
76259;SDS011;65076;52.362;6.588;2023-04-01T13:39:56;1.60;;;1.00;;
76259;SDS011;65076;52.362;6.588;2023-04-01T13:42:48;1.30;;;0.80;;
76259;SDS011;65076;52.362;6.588;2023-04-01T13:45:25;2.42;;;1.50;;
76259;SDS011;65076;52.362;6.588;2023-04-01T13:48:15;3.05;;;2.00;;
76259;SDS011;65076;52.362;6.588;2023-04-01T13:51:18;3.20;;;2.25;;
76259;SDS011;65076;52.362;6.588;2023-04-01T13:54:31;1.58;;;1.15;;
76259;SDS011;65076;52.362;6.588;2023-04-01T13:57:43;1.73;;;1.05;;
76259;SDS011;65076;52.362;6.588;2023-04-01T14:03:30;3.08;;;1.38;;
76259;SDS011;65076;52.362;6.588;2023-04-01T14:09:19;2.28;;;1.65;;
76259;SDS011;65076;52.362;6.588;2023-04-01T14:12:13;2.03;;;1.83;;
76259;SDS011;65076;52.362;6.588;2023-04-01T14:14:59;3.15;;;2.42;;
76259;SDS011;65076;52.362;6.588;2023-04-01T14:17:54;2.83;;;1.77;;
76259;SDS011;65076;52.362;6.588;2023-04-01T14:20:51;2.83;;;2.10;;
76259;SDS011;65076;52.362;6.588;2023-04-01T14:24:06;1.70;;;1.33;;
76259;SDS011;65076;52.362;6.588;2023-04-01T14:27:02;2.20;;;1.20;;
76259;SDS011;65076;52.362;6.588;2023-04-01T14:30:05;1.67;;;1.15;;
76259;SDS011;65076;52.362;6.588;2023-04-01T14:33:17;2.15;;;0.90;;
76259;SDS011;65076;52.362;6.588;2023-04-01T14:36:04;1.27;;;0.82;;
76259;SDS011;65076;52.362;6.588;2023-04-01T14:39:00;2.03;;;0.95;;
76259;SDS011;65076;52.362;6.588;2023-04-01T14:41:45;1.70;;;0.90;;
76259;SDS011;65076;52.362;6.588;2023-04-01T14:44:44;2.13;;;1.50;;
76259;SDS011;65076;52.362;6.588;2023-04-01T14:47:42;1.42;;;1.08;;
76259;SDS011;65076;52.362;6.588;2023-04-01T14:50:16;1.92;;;1.33;;
76259;SDS011;65076;52.362;6.588;2023-04-01T14:52:52;2.70;;;1.33;;
76259;SDS011;65076;52.362;6.588;2023-04-01T14:55:43;2.05;;;1.60;;
76259;SDS011;65076;52.362;6.588;2023-04-01T14:58:18;2.70;;;1.90;;
76259;SDS011;65076;52.362;6.588;2023-04-01T15:00:58;2.17;;;1.65;;
76259;SDS011;65076;52.362;6.588;2023-04-01T15:03:48;2.63;;;2.13;;
76259;SDS011;65076;52.362;6.588;2023-04-01T15:06:39;2.75;;;1.65;;
76259;SDS011;65076;52.362;6.588;2023-04-01T15:09:29;2.95;;;2.03;;
76259;SDS011;65076;52.362;6.588;2023-04-01T15:12:12;2.83;;;2.08;;
76259;SDS011;65076;52.362;6.588;2023-04-01T15:14:57;3.22;;;2.30;;
76259;SDS011;65076;52.362;6.588;2023-04-01T15:17:47;4.25;;;3.08;;
76259;SDS011;65076;52.362;6.588;2023-04-01T15:20:32;3.65;;;3.00;;
76259;SDS011;65076;52.362;6.588;2023-04-01T15:23:39;3.88;;;2.80;;
76259;SDS011;65076;52.362;6.588;2023-04-01T15:26:36;3.95;;;2.90;;
76259;SDS011;65076;52.362;6.588;2023-04-01T15:29:23;4.30;;;2.90;;
76259;SDS011;65076;52.362;6.588;2023-04-01T15:32:13;3.42;;;2.63;;
76259;SDS011;65076;52.362;6.588;2023-04-01T15:34:51;3.25;;;2.78;;
76259;SDS011;65076;52.362;6.588;2023-04-01T15:37:36;2.60;;;2.33;;
76259;SDS011;65076;52.362;6.588;2023-04-01T15:40:17;3.05;;;2.40;;
76259;SDS011;65076;52.362;6.588;2023-04-01T15:42:55;3.30;;;2.53;;
76259;SDS011;65076;52.362;6.588;2023-04-01T15:45:42;4.32;;;2.97;;
76259;SDS011;65076;52.362;6.588;2023-04-01T15:48:26;4.13;;;3.17;;
76259;SDS011;65076;52.362;6.588;2023-04-01T15:54:23;6.90;;;4.88;;
76259;SDS011;65076;52.362;6.588;2023-04-01T15:59:51;4.93;;;3.95;;
76259;SDS011;65076;52.362;6.588;2023-04-01T16:02:34;7.35;;;4.35;;
76259;SDS011;65076;52.362;6.588;2023-04-01T16:05:21;6.35;;;5.07;;
76259;SDS011;65076;52.362;6.588;2023-04-01T16:08:19;7.18;;;4.22;;
76259;SDS011;65076;52.362;6.588;2023-04-01T16:11:23;5.13;;;3.75;;
76259;SDS011;65076;52.362;6.588;2023-04-01T16:14:09;4.70;;;3.80;;
76259;SDS011;65076;52.362;6.588;2023-04-01T16:16:59;4.78;;;3.67;;
76259;SDS011;65076;52.362;6.588;2023-04-01T16:19:55;5.18;;;3.63;;
76259;SDS011;65076;52.362;6.588;2023-04-01T16:22:31;3.50;;;2.38;;
76259;SDS011;65076;52.362;6.588;2023-04-01T16:25:26;3.20;;;2.33;;
76259;SDS011;65076;52.362;6.588;2023-04-01T16:28:11;5.47;;;3.22;;
76259;SDS011;65076;52.362;6.588;2023-04-01T16:30:58;4.95;;;3.90;;
76259;SDS011;65076;52.362;6.588;2023-04-01T16:33:35;4.05;;;3.22;;
76259;SDS011;65076;52.362;6.588;2023-04-01T16:36:20;6.25;;;4.45;;
76259;SDS011;65076;52.362;6.588;2023-04-01T16:39:06;5.38;;;4.55;;
76259;SDS011;65076;52.362;6.588;2023-04-01T16:41:57;7.28;;;5.50;;
76259;SDS011;65076;52.362;6.588;2023-04-01T16:44:53;5.85;;;4.13;;
76259;SDS011;65076;52.362;6.588;2023-04-01T16:47:30;6.05;;;4.88;;
76259;SDS011;65076;52.362;6.588;2023-04-01T16:50:06;3.75;;;3.38;;
76259;SDS011;65076;52.362;6.588;2023-04-01T16:52:58;5.07;;;3.92;;
76259;SDS011;65076;52.362;6.588;2023-04-01T16:55:47;5.15;;;4.07;;
76259;SDS011;65076;52.362;6.588;2023-04-01T16:58:23;5.60;;;4.40;;
76259;SDS011;65076;52.362;6.588;2023-04-01T17:00:55;5.05;;;4.55;;
76259;SDS011;65076;52.362;6.588;2023-04-01T17:03:30;5.13;;;4.60;;
76259;SDS011;65076;52.362;6.588;2023-04-01T17:06:12;4.80;;;4.03;;
76259;SDS011;65076;52.362;6.588;2023-04-01T17:09:11;4.72;;;4.22;;
76259;SDS011;65076;52.362;6.588;2023-04-01T17:11:57;4.10;;;3.70;;
76259;SDS011;65076;52.362;6.588;2023-04-01T17:14:38;4.35;;;3.65;;
76259;SDS011;65076;52.362;6.588;2023-04-01T17:17:26;5.03;;;3.60;;
76259;SDS011;65076;52.362;6.588;2023-04-01T17:20:09;5.32;;;4.28;;
76259;SDS011;65076;52.362;6.588;2023-04-01T17:22:59;5.30;;;4.80;;
76259;SDS011;65076;52.362;6.588;2023-04-01T17:25:46;5.03;;;4.53;;
76259;SDS011;65076;52.362;6.588;2023-04-01T17:28:35;4.32;;;3.92;;
76259;SDS011;65076;52.362;6.588;2023-04-01T17:31:36;4.40;;;4.00;;
76259;SDS011;65076;52.362;6.588;2023-04-01T17:37:09;4.43;;;3.63;;
76259;SDS011;65076;52.362;6.588;2023-04-01T17:39:58;4.05;;;3.53;;